Time;durP1;ratioP1;P1;durP2;ratioP2;P2;SDS_P1;SDS_P2;PMS_P1;PMS_P2;Temp;Humidity;BMP_temperature;BMP_pressure;BME280_temperature;BME280_humidity;BME280_pressure;Samples;Min_cycle;Max_cycle;Signal;HPM_P1;HPM_P2
2021/10/17 00:00:28;;;;;;;18.08;6.15;;;;;;;;;;5028121;28;20736;-70
2021/10/17 00:02:54;;;;;;;14.23;5.10;;;;;;;;;;5016101;28;20271;-70
2021/10/17 00:05:23;;;;;;;15.68;5.20;;;;;;;;;;5027163;28;20670;-70
2021/10/17 00:07:49;;;;;;;15.20;5.10;;;;;;;;;;5016094;28;20186;-71
2021/10/17 00:10:21;;;;;;;11.70;4.97;;;;;;;;;;5028927;28;20272;-70
2021/10/17 00:12:47;;;;;;;16.25;5.35;;;;;;;;;;5014781;28;20660;-70
2021/10/17 00:15:15;;;;;;;12.35;4.65;;;;;;;;;;5026271;28;20275;-71
2021/10/17 00:17:41;;;;;;;18.83;5.55;;;;;;;;;;5019149;28;20665;-71
2021/10/17 00:20:09;;;;;;;14.80;5.22;;;;;;;;;;5025974;28;20209;-70
2021/10/17 00:22:35;;;;;;;15.23;5.60;;;;;;;;;;5016040;28;20186;-70
2021/10/17 00:25:01;;;;;;;16.15;5.55;;;;;;;;;;5025086;28;20593;-70
2021/10/17 00:27:26;;;;;;;12.68;5.00;;;;;;;;;;5028205;28;20178;-70
2021/10/17 00:29:51;;;;;;;11.43;4.90;;;;;;;;;;5020944;28;20186;-70
2021/10/17 00:32:17;;;;;;;13.70;5.53;;;;;;;;;;5026386;28;20197;-70
2021/10/17 00:34:43;;;;;;;12.63;5.38;;;;;;;;;;5020289;28;20193;-70
2021/10/17 00:37:09;;;;;;;12.00;4.85;;;;;;;;;;5025211;28;20170;-70
2021/10/17 00:39:35;;;;;;;13.15;5.63;;;;;;;;;;5017500;28;20184;-70
2021/10/17 00:42:04;;;;;;;8.38;4.47;;;;;;;;;;5026636;28;20186;-70
2021/10/17 00:44:30;;;;;;;21.95;6.35;;;;;;;;;;5021027;28;20586;-70
2021/10/17 00:46:55;;;;;;;12.57;5.53;;;;;;;;;;5027445;28;20178;-70
2021/10/17 00:49:20;;;;;;;14.07;5.30;;;;;;;;;;5015393;28;20189;-71
2021/10/17 00:51:46;;;;;;;13.88;5.38;;;;;;;;;;5026992;28;20200;-70
2021/10/17 00:54:13;;;;;;;15.75;4.68;;;;;;;;;;5015363;28;23519;-70
2021/10/17 00:56:40;;;;;;;13.15;5.00;;;;;;;;;;5024312;28;20756;-70
2021/10/17 00:59:06;;;;;;;10.27;4.97;;;;;;;;;;5024655;28;20190;-70
2021/10/17 01:01:31;;;;;;;13.98;5.18;;;;;;;;;;5020665;28;20234;-70
2021/10/17 01:03:57;;;;;;;17.67;6.47;;;;;;;;;;5025376;28;21268;-70
2021/10/17 01:06:22;;;;;;;16.90;6.15;;;;;;;;;;5017871;28;20202;-71
2021/10/17 01:08:48;;;;;;;17.75;6.40;;;;;;;;;;5024084;28;20244;-71
2021/10/17 01:11:14;;;;;;;15.80;6.70;;;;;;;;;;5019329;28;20651;-70
2021/10/17 01:13:39;;;;;;;21.00;6.70;;;;;;;;;;5026263;28;20235;-70
2021/10/17 01:16:05;;;;;;;16.30;6.22;;;;;;;;;;5017465;28;20213;-70
2021/10/17 01:18:32;;;;;;;15.55;6.78;;;;;;;;;;5023882;28;20622;-70
2021/10/17 01:20:58;;;;;;;13.10;6.18;;;;;;;;;;5019629;28;20191;-70
2021/10/17 01:23:23;;;;;;;17.55;6.50;;;;;;;;;;5024875;28;20182;-70
2021/10/17 01:25:49;;;;;;;15.23;6.50;;;;;;;;;;5019567;28;20232;-70
2021/10/17 01:28:15;;;;;;;19.80;6.50;;;;;;;;;;5024356;28;20193;-70
2021/10/17 01:30:41;;;;;;;14.85;5.35;;;;;;;;;;5023165;28;20198;-70
2021/10/17 01:33:06;;;;;;;13.52;6.10;;;;;;;;;;5020284;28;20755;-70
2021/10/17 01:35:32;;;;;;;15.88;6.57;;;;;;;;;;5027235;28;20197;-70
2021/10/17 01:37:58;;;;;;;16.15;6.05;;;;;;;;;;5015696;28;20225;-70
2021/10/17 01:40:23;;;;;;;14.27;6.00;;;;;;;;;;5026566;28;20232;-70
2021/10/17 01:42:49;;;;;;;13.20;6.32;;;;;;;;;;5016932;28;20194;-71
2021/10/17 01:45:15;;;;;;;12.48;5.45;;;;;;;;;;5026367;28;20213;-70
2021/10/17 01:47:48;;;;;;;15.35;6.13;;;;;;;;;;5017495;28;20204;-70
2021/10/17 01:50:13;;;;;;;14.57;5.72;;;;;;;;;;5026259;28;20310;-71
2021/10/17 01:52:39;;;;;;;15.48;6.07;;;;;;;;;;5016357;28;20658;-70
2021/10/17 01:55:05;;;;;;;15.48;5.97;;;;;;;;;;5026471;28;20185;-70
2021/10/17 01:57:30;;;;;;;16.42;6.22;;;;;;;;;;5018109;28;20255;-71
2021/10/17 01:59:56;;;;;;;11.75;5.88;;;;;;;;;;5028007;28;20189;-70
2021/10/17 02:02:21;;;;;;;14.90;5.65;;;;;;;;;;5028697;28;20609;-70
2021/10/17 02:04:47;;;;;;;11.85;5.45;;;;;;;;;;5021847;28;20777;-70
2021/10/17 02:07:12;;;;;;;13.18;5.20;;;;;;;;;;5030592;28;20676;-70
2021/10/17 02:09:37;;;;;;;17.48;5.88;;;;;;;;;;5019367;28;20379;-70
2021/10/17 02:12:03;;;;;;;14.57;5.63;;;;;;;;;;5031300;28;20321;-70
2021/10/17 02:14:28;;;;;;;14.35;5.20;;;;;;;;;;5018706;28;20182;-70
2021/10/17 02:16:53;;;;;;;16.33;5.65;;;;;;;;;;5030214;28;20197;-69
2021/10/17 02:19:19;;;;;;;13.13;5.88;;;;;;;;;;5020828;28;20185;-70
2021/10/17 02:21:44;;;;;;;19.63;5.90;;;;;;;;;;5029773;28;20197;-70
2021/10/17 02:24:11;;;;;;;10.52;4.80;;;;;;;;;;5021214;28;20236;-70
2021/10/17 02:26:37;;;;;;;14.65;5.72;;;;;;;;;;5029312;28;20186;-70
2021/10/17 02:29:03;;;;;;;13.45;5.70;;;;;;;;;;5023174;28;20186;-70
2021/10/17 02:31:28;;;;;;;13.73;5.65;;;;;;;;;;5028439;28;20196;-70
2021/10/17 02:33:53;;;;;;;13.40;5.55;;;;;;;;;;5025269;28;20245;-70
2021/10/17 02:36:19;;;;;;;17.95;6.60;;;;;;;;;;5020250;28;20190;-70
2021/10/17 02:38:44;;;;;;;14.27;5.45;;;;;;;;;;5026270;28;20219;-70
2021/10/17 02:41:09;;;;;;;14.45;6.03;;;;;;;;;;5018355;28;20537;-70
2021/10/17 02:43:35;;;;;;;11.40;6.00;;;;;;;;;;5029521;28;20229;-70
2021/10/17 02:46:01;;;;;;;15.85;5.72;;;;;;;;;;5020809;28;20265;-70
2021/10/17 02:48:26;;;;;;;14.63;6.30;;;;;;;;;;5026217;28;20170;-70
2021/10/17 02:50:51;;;;;;;19.30;6.47;;;;;;;;;;5017852;28;20247;-70
2021/10/17 02:53:17;;;;;;;13.32;5.82;;;;;;;;;;5031580;28;20649;-70
2021/10/17 02:55:42;;;;;;;19.92;6.72;;;;;;;;;;5021369;28;20224;-70
2021/10/17 02:58:07;;;;;;;16.00;6.07;;;;;;;;;;5026255;28;20225;-70
2021/10/17 03:00:33;;;;;;;14.95;5.55;;;;;;;;;;5017874;28;20596;-70
2021/10/17 03:02:58;;;;;;;17.90;5.68;;;;;;;;;;5027065;28;20240;-70
2021/10/17 03:05:23;;;;;;;16.10;5.85;;;;;;;;;;5027555;28;20210;-70
2021/10/17 03:07:49;;;;;;;18.38;6.22;;;;;;;;;;5021207;28;20189;-70
2021/10/17 03:10:14;;;;;;;17.35;6.45;;;;;;;;;;5027248;28;20200;-70
2021/10/17 03:12:40;;;;;;;14.82;5.78;;;;;;;;;;5022395;28;20198;-70
2021/10/17 03:15:09;;;;;;;14.45;5.97;;;;;;;;;;5026108;28;20182;-70
2021/10/17 03:17:35;;;;;;;14.45;5.72;;;;;;;;;;5017516;28;20627;-70
2021/10/17 03:20:01;;;;;;;19.35;6.30;;;;;;;;;;5028156;28;20271;-70
2021/10/17 03:22:26;;;;;;;13.65;6.00;;;;;;;;;;5021873;28;20205;-70
2021/10/17 03:24:52;;;;;;;16.15;5.93;;;;;;;;;;5026258;28;20210;-70
2021/10/17 03:27:17;;;;;;;16.67;5.75;;;;;;;;;;5020789;28;20190;-70
2021/10/17 03:29:42;;;;;;;14.75;6.93;;;;;;;;;;5026684;28;20661;-70
2021/10/17 03:32:08;;;;;;;22.80;6.20;;;;;;;;;;5022627;28;20331;-70
2021/10/17 03:34:33;;;;;;;15.10;5.85;;;;;;;;;;5024780;28;20626;-70
2021/10/17 03:36:58;;;;;;;11.90;5.40;;;;;;;;;;5029292;28;20193;-70
2021/10/17 03:39:24;;;;;;;17.20;6.43;;;;;;;;;;5018272;28;20194;-70
2021/10/17 03:41:49;;;;;;;14.38;6.47;;;;;;;;;;5027008;28;20197;-70
2021/10/17 03:44:14;;;;;;;14.55;6.40;;;;;;;;;;5019874;28;20221;-70
2021/10/17 03:46:40;;;;;;;14.40;5.85;;;;;;;;;;5024841;28;20186;-70
2021/10/17 03:49:05;;;;;;;17.33;6.68;;;;;;;;;;5019180;28;20201;-70
2021/10/17 03:51:30;;;;;;;12.25;5.45;;;;;;;;;;5030020;28;20186;-70
2021/10/17 03:53:56;;;;;;;18.02;6.30;;;;;;;;;;5019915;28;20508;-70
2021/10/17 03:56:21;;;;;;;15.13;6.50;;;;;;;;;;5025304;28;20572;-71
2021/10/17 03:58:46;;;;;;;19.35;6.68;;;;;;;;;;5018718;28;21272;-70
2021/10/17 04:01:12;;;;;;;12.15;5.78;;;;;;;;;;5025270;28;20689;-70
2021/10/17 04:03:37;;;;;;;16.65;7.45;;;;;;;;;;5028682;28;20266;-70
2021/10/17 04:06:06;;;;;;;15.93;7.03;;;;;;;;;;5018517;28;20292;-70
2021/10/17 04:08:31;;;;;;;13.90;6.32;;;;;;;;;;5027503;28;20277;-70
2021/10/17 04:10:56;;;;;;;13.00;6.82;;;;;;;;;;5016880;28;20605;-70
2021/10/17 04:13:22;;;;;;;23.23;7.25;;;;;;;;;;5028778;28;20190;-71
2021/10/17 04:15:47;;;;;;;16.23;7.20;;;;;;;;;;5018888;28;20193;-70
2021/10/17 04:18:12;;;;;;;16.92;7.70;;;;;;;;;;5025425;28;20182;-70
2021/10/17 04:20:38;;;;;;;19.50;7.25;;;;;;;;;;5017830;28;20492;-70
2021/10/17 04:23:03;;;;;;;16.10;7.75;;;;;;;;;;5025117;28;20688;-70
2021/10/17 04:25:29;;;;;;;18.17;7.97;;;;;;;;;;5017967;28;20288;-70
2021/10/17 04:27:54;;;;;;;20.10;7.40;;;;;;;;;;5029175;28;20660;-70
2021/10/17 04:30:19;;;;;;;18.77;8.18;;;;;;;;;;5017198;28;20477;-70
2021/10/17 04:32:45;;;;;;;16.15;7.85;;;;;;;;;;5022222;28;20571;-71
2021/10/17 04:35:10;;;;;;;15.90;7.32;;;;;;;;;;5022800;28;20583;-70
2021/10/17 04:37:36;;;;;;;14.25;7.22;;;;;;;;;;5019026;28;20186;-70
2021/10/17 04:40:07;;;;;;;14.55;7.32;;;;;;;;;;5023470;28;20298;-71
2021/10/17 04:42:33;;;;;;;19.98;7.75;;;;;;;;;;5021132;28;20194;-70
2021/10/17 04:45:03;;;;;;;20.13;7.45;;;;;;;;;;5024793;28;20213;-70
2021/10/17 04:47:29;;;;;;;16.85;8.15;;;;;;;;;;5019873;28;20190;-70
2021/10/17 04:49:54;;;;;;;14.07;7.32;;;;;;;;;;5024376;28;20259;-70
2021/10/17 04:52:19;;;;;;;18.65;9.10;;;;;;;;;;5017320;28;20182;-70
2021/10/17 04:54:45;;;;;;;20.13;8.35;;;;;;;;;;5025733;28;20185;-70
2021/10/17 04:57:10;;;;;;;18.80;8.57;;;;;;;;;;5017303;28;20209;-70
2021/10/17 04:59:36;;;;;;;17.08;7.78;;;;;;;;;;5021731;28;20186;-70
2021/10/17 05:02:01;;;;;;;23.52;8.43;;;;;;;;;;5014398;28;20271;-70
2021/10/17 05:04:27;;;;;;;19.10;8.32;;;;;;;;;;5026281;28;20198;-70
2021/10/17 05:06:52;;;;;;;19.23;8.85;;;;;;;;;;5021713;28;20235;-70
2021/10/17 05:09:17;;;;;;;23.30;9.15;;;;;;;;;;5021442;28;20178;-70
2021/10/17 05:11:43;;;;;;;24.80;8.98;;;;;;;;;;5022101;28;20236;-70
2021/10/17 05:14:08;;;;;;;22.52;10.27;;;;;;;;;;5018043;28;20186;-70
2021/10/17 05:16:33;;;;;;;23.52;9.20;;;;;;;;;;5021691;28;20621;-70
2021/10/17 05:18:59;;;;;;;22.17;9.73;;;;;;;;;;5015714;28;20379;-70
2021/10/17 05:21:24;;;;;;;19.27;8.93;;;;;;;;;;5023857;28;20304;-70
2021/10/17 05:23:50;;;;;;;17.92;9.25;;;;;;;;;;5017258;28;20192;-70
2021/10/17 05:26:16;;;;;;;17.52;8.10;;;;;;;;;;5023200;28;20232;-70
2021/10/17 05:28:41;;;;;;;17.38;8.73;;;;;;;;;;5015711;28;20198;-70
2021/10/17 05:31:07;;;;;;;21.95;8.85;;;;;;;;;;5024360;28;20240;-70
2021/10/17 05:33:39;;;;;;;22.70;9.40;;;;;;;;;;5017398;28;20252;-71
2021/10/17 05:36:05;;;;;;;20.92;10.50;;;;;;;;;;5027598;28;20187;-70
2021/10/17 05:38:30;;;;;;;22.35;9.27;;;;;;;;;;5015777;28;20182;-70
2021/10/17 05:40:55;;;;;;;17.90;9.25;;;;;;;;;;5021923;28;20182;-70
2021/10/17 05:43:21;;;;;;;16.80;9.38;;;;;;;;;;5026390;28;20190;-71
2021/10/17 05:45:46;;;;;;;19.63;9.35;;;;;;;;;;5015417;28;20609;-70
2021/10/17 05:48:11;;;;;;;20.73;9.63;;;;;;;;;;5025227;28;20205;-70
2021/10/17 05:50:37;;;;;;;23.35;9.90;;;;;;;;;;5015447;28;20194;-70
2021/10/17 05:53:02;;;;;;;18.02;8.93;;;;;;;;;;5024234;28;20194;-70
2021/10/17 05:55:27;;;;;;;24.35;9.80;;;;;;;;;;5015703;28;20654;-70
2021/10/17 05:57:53;;;;;;;18.48;9.52;;;;;;;;;;5026188;28;20210;-70
2021/10/17 06:00:20;;;;;;;20.70;10.33;;;;;;;;;;5015653;28;20295;-70
2021/10/17 06:02:46;;;;;;;20.55;8.75;;;;;;;;;;5024279;28;20281;-70
2021/10/17 06:05:11;;;;;;;20.70;10.48;;;;;;;;;;5014380;28;20300;-70
2021/10/17 06:07:36;;;;;;;19.33;9.93;;;;;;;;;;5025135;28;20289;-71
2021/10/17 06:10:05;;;;;;;24.23;10.02;;;;;;;;;;5020404;28;20614;-71
2021/10/17 06:12:30;;;;;;;20.45;10.90;;;;;;;;;;5018562;28;20190;-71
2021/10/17 06:14:56;;;;;;;19.98;10.25;;;;;;;;;;5024630;28;20174;-71
2021/10/17 06:17:21;;;;;;;17.95;10.27;;;;;;;;;;4998045;28;20691;-71
2021/10/17 06:19:47;;;;;;;14.93;9.20;;;;;;;;;;5022062;28;20194;-71
2021/10/17 06:22:12;;;;;;;22.83;9.98;;;;;;;;;;5013053;28;20194;-71
2021/10/17 06:24:38;;;;;;;19.80;8.65;;;;;;;;;;5026961;28;20209;-71
2021/10/17 06:27:04;;;;;;;25.88;9.93;;;;;;;;;;5015559;28;20194;-71
2021/10/17 06:29:29;;;;;;;26.88;10.90;;;;;;;;;;5023045;28;20189;-71
2021/10/17 06:31:54;;;;;;;18.63;9.95;;;;;;;;;;5014888;28;20266;-71
2021/10/17 06:34:20;;;;;;;24.40;10.27;;;;;;;;;;5022395;28;20179;-71
2021/10/17 06:36:47;;;;;;;21.30;10.05;;;;;;;;;;5017048;28;27080;-71
2021/10/17 06:39:12;;;;;;;21.05;9.80;;;;;;;;;;5023158;28;20280;-71
2021/10/17 06:41:38;;;;;;;21.33;9.32;;;;;;;;;;5024216;28;20639;-71
2021/10/17 06:44:03;;;;;;;23.33;9.75;;;;;;;;;;4321697;28;10000735;-71
2021/10/17 06:46:29;;;;;;;16.27;9.93;;;;;;;;;;5023731;28;20202;-71
2021/10/17 06:48:54;;;;;;;18.27;9.43;;;;;;;;;;5016149;28;20186;-70
2021/10/17 06:51:19;;;;;;;20.25;9.82;;;;;;;;;;5023354;28;20206;-70
2021/10/17 06:53:45;;;;;;;20.08;8.70;;;;;;;;;;5012696;28;20252;-70
2021/10/17 06:56:10;;;;;;;19.00;9.77;;;;;;;;;;5020870;28;20190;-70
2021/10/17 06:58:35;;;;;;;20.95;10.10;;;;;;;;;;5018991;28;20186;-70
2021/10/17 07:01:01;;;;;;;21.27;9.63;;;;;;;;;;5023169;28;20660;-69
2021/10/17 07:03:26;;;;;;;18.95;9.40;;;;;;;;;;5018390;28;21067;-69
2021/10/17 07:05:51;;;;;;;17.77;8.95;;;;;;;;;;5021851;28;20228;-69
2021/10/17 07:08:17;;;;;;;21.27;10.35;;;;;;;;;;5010902;28;20187;-71
2021/10/17 07:10:42;;;;;;;19.75;9.27;;;;;;;;;;5024788;28;20213;-69
2021/10/17 07:13:07;;;;;;;16.85;8.95;;;;;;;;;;5025184;28;20197;-70
2021/10/17 07:15:33;;;;;;;19.92;9.82;;;;;;;;;;5018121;28;20213;-70
2021/10/17 07:17:58;;;;;;;20.95;9.82;;;;;;;;;;5019405;28;20764;-70
2021/10/17 07:20:23;;;;;;;25.42;9.90;;;;;;;;;;5012871;28;20954;-70
2021/10/17 07:22:49;;;;;;;19.73;9.48;;;;;;;;;;5021070;28;20178;-70
2021/10/17 07:25:16;;;;;;;20.10;9.80;;;;;;;;;;5013645;28;20301;-70
2021/10/17 07:27:41;;;;;;;22.52;9.00;;;;;;;;;;5025196;28;20653;-70
2021/10/17 07:30:07;;;;;;;18.48;9.52;;;;;;;;;;5011953;28;20190;-71
2021/10/17 07:32:32;;;;;;;18.42;8.82;;;;;;;;;;5022677;28;21066;-70
2021/10/17 07:34:58;;;;;;;20.02;9.30;;;;;;;;;;5014236;28;20222;-70
2021/10/17 07:37:23;;;;;;;17.45;7.95;;;;;;;;;;5026789;28;20186;-70
2021/10/17 07:39:49;;;;;;;18.58;9.27;;;;;;;;;;5019241;28;20565;-70
2021/10/17 07:42:14;;;;;;;22.50;8.85;;;;;;;;;;5025621;28;20246;-70
2021/10/17 07:44:39;;;;;;;17.95;9.32;;;;;;;;;;5025650;28;20297;-70
2021/10/17 07:47:05;;;;;;;16.98;8.35;;;;;;;;;;5018364;28;20618;-70
2021/10/17 07:49:31;;;;;;;20.25;9.27;;;;;;;;;;5024486;28;20641;-70
2021/10/17 07:51:56;;;;;;;19.80;8.82;;;;;;;;;;5020930;28;20213;-70
2021/10/17 07:54:21;;;;;;;18.15;8.30;;;;;;;;;;5024451;28;20205;-71
2021/10/17 07:56:47;;;;;;;18.73;9.40;;;;;;;;;;5016469;28;20226;-70
2021/10/17 07:59:12;;;;;;;20.50;9.40;;;;;;;;;;5027331;28;20198;-70
2021/10/17 08:01:37;;;;;;;17.77;9.25;;;;;;;;;;5016973;28;20276;-69
2021/10/17 08:04:03;;;;;;;18.77;9.02;;;;;;;;;;5023778;28;20244;-69
2021/10/17 08:06:28;;;;;;;20.65;9.07;;;;;;;;;;5015774;28;20288;-69
2021/10/17 08:08:54;;;;;;;15.73;8.65;;;;;;;;;;5024292;28;20186;-69
2021/10/17 08:11:19;;;;;;;14.10;8.63;;;;;;;;;;5024081;28;20259;-69
2021/10/17 08:13:45;;;;;;;18.92;9.52;;;;;;;;;;5015686;28;20194;-69
2021/10/17 08:16:11;;;;;;;17.08;8.75;;;;;;;;;;4676439;28;10000056;-70
2021/10/17 08:18:36;;;;;;;18.45;9.57;;;;;;;;;;5015303;28;20216;-70
2021/10/17 08:21:02;;;;;;;16.95;8.52;;;;;;;;;;5016402;28;20185;-70
2021/10/17 08:23:27;;;;;;;19.02;9.57;;;;;;;;;;5013755;28;20190;-70
2021/10/17 08:25:52;;;;;;;16.70;8.85;;;;;;;;;;5023249;28;20217;-70
2021/10/17 08:28:18;;;;;;;16.25;7.80;;;;;;;;;;5011948;28;20241;-71
2021/10/17 08:30:46;;;;;;;13.60;8.02;;;;;;;;;;5023000;28;20194;-70
2021/10/17 08:33:12;;;;;;;17.48;8.15;;;;;;;;;;5011075;28;20479;-71
2021/10/17 08:35:37;;;;;;;13.93;7.55;;;;;;;;;;5022571;28;20193;-71
2021/10/17 08:38:02;;;;;;;16.33;7.47;;;;;;;;;;5012727;28;20190;-71
2021/10/17 08:40:28;;;;;;;16.10;7.07;;;;;;;;;;5021802;28;20186;-71
2021/10/17 08:42:53;;;;;;;17.08;7.30;;;;;;;;;;5020095;28;20193;-71
2021/10/17 08:45:18;;;;;;;17.05;7.55;;;;;;;;;;5016411;28;20398;-70
2021/10/17 08:47:46;;;;;;;22.00;7.95;;;;;;;;;;5021291;28;20518;-70
2021/10/17 08:50:15;;;;;;;14.40;7.10;;;;;;;;;;5011635;28;20943;-70
2021/10/17 08:52:41;;;;;;;16.40;6.95;;;;;;;;;;5022769;28;20865;-70
2021/10/17 08:55:07;;;;;;;15.60;7.25;;;;;;;;;;5012031;28;20237;-70
2021/10/17 08:57:32;;;;;;;15.32;7.60;;;;;;;;;;5019661;28;20218;-70
2021/10/17 08:59:57;;;;;;;17.67;7.18;;;;;;;;;;5011841;28;20650;-71
2021/10/17 09:02:23;;;;;;;16.17;7.32;;;;;;;;;;5020450;28;20178;-72
2021/10/17 09:05:06;;;;;;;14.45;7.10;;;;;;;;;;5010975;28;20218;-72
2021/10/17 09:07:32;;;;;;;18.40;7.68;;;;;;;;;;5019559;28;20212;-71
2021/10/17 09:10:07;;;;;;;19.13;7.55;;;;;;;;;;5010680;28;20645;-70
2021/10/17 09:12:34;;;;;;;19.85;8.55;;;;;;;;;;5021289;28;20475;-70
2021/10/17 09:15:18;;;;;;;19.95;7.55;;;;;;;;;;5016970;28;20272;-70
2021/10/17 09:18:05;;;;;;;14.85;7.45;;;;;;;;;;5025475;28;20676;-71
2021/10/17 09:20:32;;;;;;;18.38;7.90;;;;;;;;;;5017129;28;20218;-70
2021/10/17 09:23:03;;;;;;;17.60;7.22;;;;;;;;;;5022963;28;20178;-70
2021/10/17 09:25:34;;;;;;;12.77;6.90;;;;;;;;;;5014966;28;20340;-70
2021/10/17 09:27:59;;;;;;;19.75;7.45;;;;;;;;;;5020954;28;20183;-70
2021/10/17 09:30:24;;;;;;;16.98;7.15;;;;;;;;;;5019062;28;20320;-70
2021/10/17 09:32:50;;;;;;;16.15;7.15;;;;;;;;;;5012141;28;20728;-70
2021/10/17 09:35:16;;;;;;;16.77;7.05;;;;;;;;;;5024152;28;20186;-70
2021/10/17 09:37:43;;;;;;;16.48;7.68;;;;;;;;;;5014975;28;20523;-70
2021/10/17 09:40:18;;;;;;;19.52;7.15;;;;;;;;;;5023226;28;20193;-70
2021/10/17 09:43:04;;;;;;;14.45;6.82;;;;;;;;;;5013967;28;20288;-70
2021/10/17 09:45:29;;;;;;;18.65;7.57;;;;;;;;;;5019832;28;20303;-71
2021/10/17 09:47:56;;;;;;;15.95;7.20;;;;;;;;;;5016687;28;20277;-69
2021/10/17 09:50:22;;;;;;;14.60;6.35;;;;;;;;;;5021730;28;20288;-70
2021/10/17 09:52:54;;;;;;;17.52;6.82;;;;;;;;;;5017525;28;20182;-69
2021/10/17 09:55:20;;;;;;;12.40;6.75;;;;;;;;;;5021356;28;20312;-70
2021/10/17 09:57:45;;;;;;;13.10;6.32;;;;;;;;;;5018005;28;20293;-70
2021/10/17 10:00:11;;;;;;;13.15;6.65;;;;;;;;;;5024307;28;20318;-69
2021/10/17 10:02:37;;;;;;;14.80;6.28;;;;;;;;;;5017318;28;20228;-69
2021/10/17 10:05:03;;;;;;;13.82;6.60;;;;;;;;;;5021722;28;20289;-69
2021/10/17 10:07:30;;;;;;;18.83;7.13;;;;;;;;;;5018883;28;20273;-69
2021/10/17 10:09:57;;;;;;;15.57;6.57;;;;;;;;;;5022456;28;20654;-69
2021/10/17 10:12:26;;;;;;;15.02;6.40;;;;;;;;;;5025587;28;20201;-69
2021/10/17 10:14:54;;;;;;;18.77;6.57;;;;;;;;;;5017099;28;20182;-69
2021/10/17 10:17:21;;;;;;;15.48;6.15;;;;;;;;;;5025287;28;20194;-71
2021/10/17 10:19:46;;;;;;;12.40;6.18;;;;;;;;;;5014814;28;20271;-69
2021/10/17 10:22:16;;;;;;;15.70;6.68;;;;;;;;;;5029401;28;20332;-70
2021/10/17 10:24:49;;;;;;;15.13;6.32;;;;;;;;;;5020491;28;20241;-71
2021/10/17 10:27:15;;;;;;;12.88;5.88;;;;;;;;;;5027229;28;20209;-70
2021/10/17 10:29:41;;;;;;;14.85;6.13;;;;;;;;;;5021304;28;20214;-70
2021/10/17 10:32:07;;;;;;;16.45;6.65;;;;;;;;;;5031404;28;20245;-72
2021/10/17 10:34:32;;;;;;;14.65;6.10;;;;;;;;;;5020548;28;20276;-71
2021/10/17 10:37:12;;;;;;;13.90;6.65;;;;;;;;;;5030129;28;20626;-71
2021/10/17 10:40:01;;;;;;;14.50;6.72;;;;;;;;;;5013935;28;20299;-71
2021/10/17 10:42:37;;;;;;;18.48;6.90;;;;;;;;;;5023436;28;20243;-70
2021/10/17 10:45:32;;;;;;;12.63;6.07;;;;;;;;;;5012462;28;20230;-70
2021/10/17 10:48:10;;;;;;;11.20;6.85;;;;;;;;;;5021556;28;20288;-70
2021/10/17 10:50:41;;;;;;;15.57;6.25;;;;;;;;;;5019645;28;20918;-70
2021/10/17 10:53:08;;;;;;;15.57;6.28;;;;;;;;;;5024512;28;20209;-70
2021/10/17 10:55:51;;;;;;;11.13;6.13;;;;;;;;;;5016022;28;20174;-70
2021/10/17 10:58:21;;;;;;;15.45;5.97;;;;;;;;;;5020241;28;20669;-70
2021/10/17 11:00:46;;;;;;;10.50;6.40;;;;;;;;;;5018322;28;20298;-70
2021/10/17 11:03:13;;;;;;;14.57;6.05;;;;;;;;;;5025781;28;20634;-70
2021/10/17 11:05:39;;;;;;;16.30;6.82;;;;;;;;;;5016951;28;20214;-70
2021/10/17 11:08:12;;;;;;;11.45;5.82;;;;;;;;;;5022851;28;20198;-70
2021/10/17 11:10:39;;;;;;;13.70;5.80;;;;;;;;;;5015592;28;20205;-71
2021/10/17 11:13:07;;;;;;;12.10;6.13;;;;;;;;;;5025859;28;21306;-70
2021/10/17 11:15:35;;;;;;;10.88;5.32;;;;;;;;;;5023893;28;20715;-70
2021/10/17 11:18:05;;;;;;;12.63;5.32;;;;;;;;;;5015583;28;20281;-70
2021/10/17 11:20:37;;;;;;;14.45;5.68;;;;;;;;;;5023844;28;20577;-70
2021/10/17 11:23:05;;;;;;;11.75;5.72;;;;;;;;;;5018671;28;20190;-70
2021/10/17 11:25:31;;;;;;;12.35;5.25;;;;;;;;;;5026571;28;20698;-70
2021/10/17 11:27:57;;;;;;;10.98;5.28;;;;;;;;;;5017586;28;20194;-70
2021/10/17 11:30:31;;;;;;;13.05;5.90;;;;;;;;;;5022868;28;20198;-70
2021/10/17 11:32:59;;;;;;;13.20;5.75;;;;;;;;;;4318887;28;10000843;-70
2021/10/17 11:35:29;;;;;;;12.77;5.25;;;;;;;;;;5021075;28;20277;-70
2021/10/17 11:37:56;;;;;;;12.13;5.53;;;;;;;;;;5011980;28;20187;-70
2021/10/17 11:40:21;;;;;;;12.68;5.22;;;;;;;;;;5021962;28;20190;-71
2021/10/17 11:42:52;;;;;;;11.88;5.43;;;;;;;;;;5012642;28;20232;-70
2021/10/17 11:45:32;;;;;;;11.05;4.60;;;;;;;;;;5021063;28;20627;-70
2021/10/17 11:48:00;;;;;;;15.32;5.65;;;;;;;;;;5013217;28;20197;-71
2021/10/17 11:50:28;;;;;;;13.20;5.20;;;;;;;;;;5022146;28;20221;-70
2021/10/17 11:52:55;;;;;;;11.10;5.50;;;;;;;;;;5010843;28;20193;-69
2021/10/17 11:55:32;;;;;;;14.35;5.38;;;;;;;;;;5022341;28;20240;-69
2021/10/17 11:57:59;;;;;;;11.48;5.50;;;;;;;;;;5013321;28;20745;-69
2021/10/17 12:00:29;;;;;;;10.15;4.72;;;;;;;;;;5018241;28;20567;-69
2021/10/17 12:02:55;;;;;;;14.70;4.75;;;;;;;;;;5020094;28;20198;-70
2021/10/17 12:05:23;;;;;;;8.52;4.70;;;;;;;;;;5015472;28;20585;-69
2021/10/17 12:07:49;;;;;;;13.23;5.05;;;;;;;;;;5022570;28;20644;-69
2021/10/17 12:10:15;;;;;;;12.70;4.57;;;;;;;;;;5008832;28;20206;-69
2021/10/17 12:12:41;;;;;;;12.60;5.13;;;;;;;;;;5020750;28;20186;-69
2021/10/17 12:15:12;;;;;;;14.05;6.35;;;;;;;;;;5012592;28;20271;-69
2021/10/17 12:17:38;;;;;;;13.88;4.88;;;;;;;;;;5021219;28;20673;-70
2021/10/17 12:20:10;;;;;;;8.60;4.63;;;;;;;;;;5014789;28;20190;-70
2021/10/17 12:22:40;;;;;;;13.25;4.70;;;;;;;;;;5016141;28;20197;-71
2021/10/17 12:25:07;;;;;;;9.65;4.68;;;;;;;;;;5014275;28;20206;-70
2021/10/17 12:27:35;;;;;;;7.63;4.20;;;;;;;;;;5022014;28;20610;-71
2021/10/17 12:30:32;;;;;;;11.40;4.53;;;;;;;;;;5009276;28;20219;-73
2021/10/17 12:32:59;;;;;;;7.82;4.10;;;;;;;;;;5016406;28;20311;-69
2021/10/17 12:35:36;;;;;;;12.15;4.43;;;;;;;;;;5011054;28;20190;-70
2021/10/17 12:38:11;;;;;;;11.80;4.88;;;;;;;;;;5018721;28;20212;-71
2021/10/17 12:40:51;;;;;;;12.40;4.32;;;;;;;;;;5009761;28;20198;-70
2021/10/17 12:43:24;;;;;;;12.05;4.00;;;;;;;;;;5017242;28;20231;-69
2021/10/17 12:45:49;;;;;;;7.00;3.63;;;;;;;;;;5013292;28;20321;-72
2021/10/17 12:48:17;;;;;;;10.52;4.22;;;;;;;;;;5018351;28;20732;-70
2021/10/17 12:50:43;;;;;;;12.60;4.00;;;;;;;;;;5013241;28;20285;-70
2021/10/17 12:53:12;;;;;;;8.38;4.13;;;;;;;;;;5016130;28;20197;-70
2021/10/17 12:55:39;;;;;;;11.90;4.57;;;;;;;;;;5018267;28;20273;-73
2021/10/17 12:58:10;;;;;;;7.90;3.78;;;;;;;;;;5009938;28;20518;-70
2021/10/17 13:00:38;;;;;;;7.22;3.92;;;;;;;;;;5013055;28;20278;-70
2021/10/17 13:03:17;;;;;;;6.82;3.60;;;;;;;;;;5014431;28;20669;-69
2021/10/17 13:05:49;;;;;;;11.23;4.30;;;;;;;;;;5014157;28;20679;-69
2021/10/17 13:08:16;;;;;;;7.28;3.63;;;;;;;;;;5005246;28;20194;-70
2021/10/17 13:10:41;;;;;;;9.38;4.25;;;;;;;;;;5017240;28;20224;-69
2021/10/17 13:13:23;;;;;;;10.38;4.68;;;;;;;;;;5010200;28;20278;-70
2021/10/17 13:15:54;;;;;;;8.05;4.40;;;;;;;;;;5018555;28;20600;-70
2021/10/17 13:18:21;;;;;;;9.70;5.00;;;;;;;;;;5010311;28;20189;-70
2021/10/17 13:20:46;;;;;;;8.88;4.60;;;;;;;;;;5021006;28;20220;-70
2021/10/17 13:23:17;;;;;;;11.10;4.70;;;;;;;;;;5009418;28;20189;-70
2021/10/17 13:25:45;;;;;;;9.65;5.32;;;;;;;;;;5021871;28;20292;-70
2021/10/17 13:28:11;;;;;;;8.90;5.03;;;;;;;;;;5005213;28;20925;-71
2021/10/17 13:30:36;;;;;;;12.15;5.22;;;;;;;;;;5017045;28;20293;-71
2021/10/17 13:33:03;;;;;;;11.70;4.97;;;;;;;;;;5001412;28;20994;-70
2021/10/17 13:35:30;;;;;;;11.35;5.30;;;;;;;;;;5021395;28;20276;-71
2021/10/17 13:37:56;;;;;;;11.38;5.38;;;;;;;;;;5018886;28;20560;-70
2021/10/17 13:40:22;;;;;;;11.65;5.13;;;;;;;;;;5010868;28;20198;-70
2021/10/17 13:42:52;;;;;;;12.18;5.63;;;;;;;;;;5015270;28;20614;-70
2021/10/17 13:45:18;;;;;;;14.77;5.38;;;;;;;;;;5009985;28;21265;-71
2021/10/17 13:47:44;;;;;;;13.20;5.88;;;;;;;;;;5019178;28;20434;-72
2021/10/17 13:50:10;;;;;;;10.40;5.88;;;;;;;;;;5010108;28;20268;-71
2021/10/17 13:52:36;;;;;;;13.60;5.43;;;;;;;;;;5018237;28;20615;-71
2021/10/17 13:55:01;;;;;;;15.68;5.40;;;;;;;;;;5006523;28;20222;-71
2021/10/17 13:57:26;;;;;;;13.48;5.35;;;;;;;;;;5019619;28;20202;-70
2021/10/17 13:59:52;;;;;;;12.98;5.80;;;;;;;;;;5016828;28;20559;-69
2021/10/17 14:02:18;;;;;;;13.80;5.93;;;;;;;;;;5016602;28;20523;-70
2021/10/17 14:04:43;;;;;;;11.13;5.60;;;;;;;;;;5015834;28;22310;-71
2021/10/17 14:07:08;;;;;;;8.65;5.22;;;;;;;;;;5023824;28;20668;-70
2021/10/17 14:09:34;;;;;;;9.88;5.57;;;;;;;;;;5026013;28;20240;-70
2021/10/17 14:11:59;;;;;;;10.10;5.68;;;;;;;;;;5013895;28;20632;-71
2021/10/17 14:14:28;;;;;;;12.48;5.95;;;;;;;;;;5020517;28;20224;-70
2021/10/17 14:16:54;;;;;;;10.63;5.72;;;;;;;;;;5012044;28;20579;-70
2021/10/17 14:19:19;;;;;;;12.75;6.00;;;;;;;;;;5019626;28;20193;-70
2021/10/17 14:21:44;;;;;;;10.75;5.20;;;;;;;;;;5014835;28;20263;-70
2021/10/17 14:24:10;;;;;;;14.10;5.90;;;;;;;;;;5019416;28;20248;-70
2021/10/17 14:26:36;;;;;;;10.05;5.40;;;;;;;;;;5015594;28;20717;-71
2021/10/17 14:29:02;;;;;;;16.33;6.03;;;;;;;;;;5021738;28;20658;-70